KOLS

Details ICAO KOLS (OLS)
Name NOGALES INTL
Region United States
Timezone America/Phoenix (UTC-7.0)
Plans Departing 11
Arriving 9
Stats Elevation 3,955 ft / 1,205 m (AMSL)
Location 31.417718° -110.847894°
Runways 1
Magnetic Variation 9.620° E
Sunrise 2018-05-21 12:25:07 UTC / 2018-05-21 05:25:07 Local
Sunset 2018-05-22 02:17:45 UTC / 2018-05-21 19:17:45 Local
Advertisement - Login to hide

Runways

ID Width Length Bearing (true) Bearing (mag) Surface Threshold Offset Overrun Length
03 90 ft / 27 m 7,201 ft / 2,195 m 46.17° 36.55° Asphalt 0 ft / 0 m 0 ft / 0 m
21 90 ft / 27 m 7,201 ft / 2,195 m 226.18° 216.56° Asphalt 910 ft / 277 m 0 ft / 0 m

Map

Weather


0- 5 10 15 20 25 30 35+ Temperature / ° C

Clouds and Precipitation
Forecast for 2018-05-22 00:00 UTC. Updated 6 hours ago

Ground ~20,000 ft ~40,000 ft Winds

METAR

KOLS 220354Z AUTO 17008KT 10SM CLR 22/M03 A2990 RMK AO2 SLP058 T02171033

TAF

KOLS 212324Z 2200/2224 19014G22KT P6SM SKC FM220400 18008KT P6SM SKC FM220800 12006KT P6SM SKC FM221500 17012G18KT P6SM SKC FM222000 21016G26KT P6SM SKC

Frequencies

Recorded 121.12 MHz ASOS
Approach 125.10 MHz TUCSON APP DEP
Unicom 122.80 MHz CTAF/UNICOM
Warning: Do not use this data for real-world aviation or navigation. No guarantee of current accuracy is given.